sensor_id;sensor_type;location;lat;lon;timestamp;temperature;humidity
51661;DHT22;37741;49.748;8.490;2023-03-31T00:02:03;13.40;75.40
51661;DHT22;37741;49.748;8.490;2023-03-31T00:04:39;13.40;75.50
51661;DHT22;37741;49.748;8.490;2023-03-31T00:07:13;13.40;75.50
51661;DHT22;37741;49.748;8.490;2023-03-31T00:09:40;13.30;75.50
51661;DHT22;37741;49.748;8.490;2023-03-31T00:12:10;13.40;75.70
51661;DHT22;37741;49.748;8.490;2023-03-31T00:14:36;13.30;75.70
51661;DHT22;37741;49.748;8.490;2023-03-31T00:17:02;13.40;75.60
51661;DHT22;37741;49.748;8.490;2023-03-31T00:19:29;13.30;75.70
51661;DHT22;37741;49.748;8.490;2023-03-31T00:21:57;13.30;75.80
51661;DHT22;37741;49.748;8.490;2023-03-31T00:24:27;13.30;75.80
51661;DHT22;37741;49.748;8.490;2023-03-31T00:26:53;13.30;75.80
51661;DHT22;37741;49.748;8.490;2023-03-31T00:29:18;13.30;75.90
51661;DHT22;37741;49.748;8.490;2023-03-31T00:31:44;13.30;75.90
51661;DHT22;37741;49.748;8.490;2023-03-31T00:34:09;13.30;75.80
51661;DHT22;37741;49.748;8.490;2023-03-31T00:36:35;13.30;75.90
51661;DHT22;37741;49.748;8.490;2023-03-31T00:39:10;13.20;76.00
51661;DHT22;37741;49.748;8.490;2023-03-31T00:41:36;13.20;76.00
51661;DHT22;37741;49.748;8.490;2023-03-31T00:44:20;13.20;76.00
51661;DHT22;37741;49.748;8.490;2023-03-31T00:49:48;13.20;76.10
51661;DHT22;37741;49.748;8.490;2023-03-31T00:52:22;13.10;76.10
51661;DHT22;37741;49.748;8.490;2023-03-31T00:54:53;13.10;76.00
51661;DHT22;37741;49.748;8.490;2023-03-31T00:57:21;13.10;76.10
51661;DHT22;37741;49.748;8.490;2023-03-31T00:59:55;13.10;76.00
51661;DHT22;37741;49.748;8.490;2023-03-31T01:02:22;13.10;76.20
51661;DHT22;37741;49.748;8.490;2023-03-31T01:04:52;13.10;76.10
51661;DHT22;37741;49.748;8.490;2023-03-31T01:07:24;13.10;76.20
51661;DHT22;37741;49.748;8.490;2023-03-31T01:09:52;13.10;76.30
51661;DHT22;37741;49.748;8.490;2023-03-31T01:12:21;13.10;76.20
51661;DHT22;37741;49.748;8.490;2023-03-31T01:14:51;13.00;76.30
51661;DHT22;37741;49.748;8.490;2023-03-31T01:17:19;13.00;76.40
51661;DHT22;37741;49.748;8.490;2023-03-31T01:28:45;12.90;76.30
51661;DHT22;37741;49.748;8.490;2023-03-31T01:50:07;12.80;76.80
51661;DHT22;37741;49.748;8.490;2023-03-31T01:52:49;12.90;77.00
51661;DHT22;37741;49.748;8.490;2023-03-31T01:55:18;12.80;77.00
51661;DHT22;37741;49.748;8.490;2023-03-31T01:57:49;12.80;77.00
51661;DHT22;37741;49.748;8.490;2023-03-31T02:00:22;12.80;77.00
51661;DHT22;37741;49.748;8.490;2023-03-31T02:02:58;12.70;77.70
51661;DHT22;37741;49.748;8.490;2023-03-31T02:05:31;12.80;77.20
51661;DHT22;37741;49.748;8.490;2023-03-31T02:08:11;12.70;77.10
51661;DHT22;37741;49.748;8.490;2023-03-31T02:10:40;12.70;77.10
51661;DHT22;37741;49.748;8.490;2023-03-31T02:13:07;12.70;77.10
51661;DHT22;37741;49.748;8.490;2023-03-31T02:15:38;12.70;77.20
51661;DHT22;37741;49.748;8.490;2023-03-31T02:18:07;12.70;77.20
51661;DHT22;37741;49.748;8.490;2023-03-31T02:20:38;12.70;77.20
51661;DHT22;37741;49.748;8.490;2023-03-31T02:23:08;12.70;77.30
51661;DHT22;37741;49.748;8.490;2023-03-31T02:25:39;12.70;77.40
51661;DHT22;37741;49.748;8.490;2023-03-31T02:28:12;12.70;77.30
51661;DHT22;37741;49.748;8.490;2023-03-31T02:33:23;12.60;77.40
51661;DHT22;37741;49.748;8.490;2023-03-31T02:35:49;12.70;77.50
51661;DHT22;37741;49.748;8.490;2023-03-31T02:38:16;12.60;77.50
51661;DHT22;37741;49.748;8.490;2023-03-31T02:40:42;12.60;77.70
51661;DHT22;37741;49.748;8.490;2023-03-31T02:43:07;12.60;77.80
51661;DHT22;37741;49.748;8.490;2023-03-31T02:45:41;12.60;77.90
51661;DHT22;37741;49.748;8.490;2023-03-31T02:48:11;12.60;78.00
51661;DHT22;37741;49.748;8.490;2023-03-31T02:50:58;12.60;78.00
51661;DHT22;37741;49.748;8.490;2023-03-31T02:53:40;12.60;78.00
51661;DHT22;37741;49.748;8.490;2023-03-31T03:10:13;12.50;78.10
51661;DHT22;37741;49.748;8.490;2023-03-31T03:15:34;12.50;78.00
51661;DHT22;37741;49.748;8.490;2023-03-31T03:18:03;12.50;77.90
51661;DHT22;37741;49.748;8.490;2023-03-31T03:20:30;12.50;77.90
51661;DHT22;37741;49.748;8.490;2023-03-31T03:22:58;12.40;77.80
51661;DHT22;37741;49.748;8.490;2023-03-31T03:25:24;12.40;77.80
51661;DHT22;37741;49.748;8.490;2023-03-31T03:27:50;12.40;78.00
51661;DHT22;37741;49.748;8.490;2023-03-31T03:30:17;12.40;77.80
51661;DHT22;37741;49.748;8.490;2023-03-31T03:32:43;12.40;78.00
51661;DHT22;37741;49.748;8.490;2023-03-31T03:35:09;12.40;77.80
51661;DHT22;37741;49.748;8.490;2023-03-31T03:37:35;12.40;77.80
51661;DHT22;37741;49.748;8.490;2023-03-31T03:40:01;12.40;77.90
51661;DHT22;37741;49.748;8.490;2023-03-31T03:42:30;12.40;77.80
51661;DHT22;37741;49.748;8.490;2023-03-31T03:44:55;12.40;77.90
51661;DHT22;37741;49.748;8.490;2023-03-31T03:47:21;12.40;77.90
51661;DHT22;37741;49.748;8.490;2023-03-31T03:49:46;12.30;77.90
51661;DHT22;37741;49.748;8.490;2023-03-31T03:52:13;12.40;77.90
51661;DHT22;37741;49.748;8.490;2023-03-31T03:54:39;12.30;78.00
51661;DHT22;37741;49.748;8.490;2023-03-31T03:57:05;12.40;78.10
51661;DHT22;37741;49.748;8.490;2023-03-31T03:59:31;12.30;77.90
51661;DHT22;37741;49.748;8.490;2023-03-31T04:01:57;12.30;77.90
51661;DHT22;37741;49.748;8.490;2023-03-31T04:04:23;12.30;77.90
51661;DHT22;37741;49.748;8.490;2023-03-31T04:06:48;12.30;77.90
51661;DHT22;37741;49.748;8.490;2023-03-31T04:09:14;12.30;77.90
51661;DHT22;37741;49.748;8.490;2023-03-31T04:11:40;12.30;78.10
51661;DHT22;37741;49.748;8.490;2023-03-31T04:14:06;12.30;78.20
51661;DHT22;37741;49.748;8.490;2023-03-31T04:16:31;12.30;78.20
51661;DHT22;37741;49.748;8.490;2023-03-31T04:18:58;12.20;78.10
51661;DHT22;37741;49.748;8.490;2023-03-31T04:21:29;12.20;78.20
51661;DHT22;37741;49.748;8.490;2023-03-31T04:23:55;12.20;78.20
51661;DHT22;37741;49.748;8.490;2023-03-31T04:26:27;12.20;78.30
51661;DHT22;37741;49.748;8.490;2023-03-31T04:29:05;12.20;78.30
51661;DHT22;37741;49.748;8.490;2023-03-31T04:31:32;12.20;78.30
51661;DHT22;37741;49.748;8.490;2023-03-31T04:33:57;12.20;78.40
51661;DHT22;37741;49.748;8.490;2023-03-31T04:36:27;12.20;78.60
51661;DHT22;37741;49.748;8.490;2023-03-31T04:38:53;12.20;78.80
51661;DHT22;37741;49.748;8.490;2023-03-31T04:41:21;12.20;78.70
51661;DHT22;37741;49.748;8.490;2023-03-31T04:43:46;12.20;78.90
51661;DHT22;37741;49.748;8.490;2023-03-31T04:46:12;12.10;78.90
51661;DHT22;37741;49.748;8.490;2023-03-31T04:48:38;12.20;78.80
51661;DHT22;37741;49.748;8.490;2023-03-31T04:51:04;12.20;79.00
51661;DHT22;37741;49.748;8.490;2023-03-31T04:53:30;12.10;79.00
51661;DHT22;37741;49.748;8.490;2023-03-31T04:55:56;12.20;79.20
51661;DHT22;37741;49.748;8.490;2023-03-31T04:58:21;12.20;79.20
51661;DHT22;37741;49.748;8.490;2023-03-31T05:00:47;12.20;79.30
51661;DHT22;37741;49.748;8.490;2023-03-31T05:03:13;12.10;79.20
51661;DHT22;37741;49.748;8.490;2023-03-31T05:05:38;12.10;79.50
51661;DHT22;37741;49.748;8.490;2023-03-31T05:08:04;12.10;79.50
51661;DHT22;37741;49.748;8.490;2023-03-31T05:10:30;12.10;80.30
51661;DHT22;37741;49.748;8.490;2023-03-31T05:12:56;12.10;79.50
51661;DHT22;37741;49.748;8.490;2023-03-31T05:15:21;12.10;79.70
51661;DHT22;37741;49.748;8.490;2023-03-31T05:17:49;12.10;79.60
51661;DHT22;37741;49.748;8.490;2023-03-31T05:20:20;12.10;79.80
51661;DHT22;37741;49.748;8.490;2023-03-31T05:22:46;12.00;79.70
51661;DHT22;37741;49.748;8.490;2023-03-31T05:25:13;12.00;79.80
51661;DHT22;37741;49.748;8.490;2023-03-31T05:27:45;12.00;79.80
51661;DHT22;37741;49.748;8.490;2023-03-31T05:30:16;12.10;80.00
51661;DHT22;37741;49.748;8.490;2023-03-31T05:32:42;12.00;80.00
51661;DHT22;37741;49.748;8.490;2023-03-31T05:35:08;12.00;80.00
51661;DHT22;37741;49.748;8.490;2023-03-31T05:37:35;12.00;79.90
51661;DHT22;37741;49.748;8.490;2023-03-31T05:40:00;12.00;80.00
51661;DHT22;37741;49.748;8.490;2023-03-31T05:42:28;12.00;80.00
51661;DHT22;37741;49.748;8.490;2023-03-31T05:44:53;12.00;80.20
51661;DHT22;37741;49.748;8.490;2023-03-31T05:47:19;12.00;80.30
51661;DHT22;37741;49.748;8.490;2023-03-31T05:49:45;12.00;80.20
51661;DHT22;37741;49.748;8.490;2023-03-31T05:52:11;12.00;80.30
51661;DHT22;37741;49.748;8.490;2023-03-31T05:54:36;12.00;80.50
51661;DHT22;37741;49.748;8.490;2023-03-31T05:57:02;11.90;80.60
51661;DHT22;37741;49.748;8.490;2023-03-31T05:59:28;11.90;80.60
51661;DHT22;37741;49.748;8.490;2023-03-31T06:01:54;11.90;80.70
51661;DHT22;37741;49.748;8.490;2023-03-31T06:04:19;11.90;80.90
51661;DHT22;37741;49.748;8.490;2023-03-31T06:06:45;11.90;81.10
51661;DHT22;37741;49.748;8.490;2023-03-31T06:09:14;11.90;81.10
51661;DHT22;37741;49.748;8.490;2023-03-31T06:11:40;11.90;81.30
51661;DHT22;37741;49.748;8.490;2023-03-31T06:14:05;11.90;81.30
51661;DHT22;37741;49.748;8.490;2023-03-31T06:16:31;11.90;81.30
51661;DHT22;37741;49.748;8.490;2023-03-31T06:18:57;11.80;81.40
51661;DHT22;37741;49.748;8.490;2023-03-31T06:21:23;11.80;81.60
51661;DHT22;37741;49.748;8.490;2023-03-31T06:23:48;11.80;81.60
51661;DHT22;37741;49.748;8.490;2023-03-31T06:26:18;11.80;81.70
51661;DHT22;37741;49.748;8.490;2023-03-31T06:28:45;11.80;81.80
51661;DHT22;37741;49.748;8.490;2023-03-31T06:31:13;11.80;81.80
51661;DHT22;37741;49.748;8.490;2023-03-31T06:33:40;11.80;81.90
51661;DHT22;37741;49.748;8.490;2023-03-31T06:36:06;11.80;82.00
51661;DHT22;37741;49.748;8.490;2023-03-31T06:38:34;11.80;82.00
51661;DHT22;37741;49.748;8.490;2023-03-31T06:41:00;11.80;82.20
51661;DHT22;37741;49.748;8.490;2023-03-31T06:43:25;11.80;82.20
51661;DHT22;37741;49.748;8.490;2023-03-31T06:45:54;11.80;82.20
51661;DHT22;37741;49.748;8.490;2023-03-31T06:48:22;11.80;82.20
51661;DHT22;37741;49.748;8.490;2023-03-31T06:50:49;11.70;82.10
51661;DHT22;37741;49.748;8.490;2023-03-31T06:53:15;11.80;82.30
51661;DHT22;37741;49.748;8.490;2023-03-31T06:55:41;11.80;82.30
51661;DHT22;37741;49.748;8.490;2023-03-31T06:58:06;11.70;82.30
51661;DHT22;37741;49.748;8.490;2023-03-31T07:00:32;11.70;82.40
51661;DHT22;37741;49.748;8.490;2023-03-31T07:02:58;11.70;82.40
51661;DHT22;37741;49.748;8.490;2023-03-31T07:05:24;11.70;82.50
51661;DHT22;37741;49.748;8.490;2023-03-31T07:07:59;11.70;82.70
51661;DHT22;37741;49.748;8.490;2023-03-31T07:10:27;11.70;82.80
51661;DHT22;37741;49.748;8.490;2023-03-31T07:12:53;11.70;82.80
51661;DHT22;37741;49.748;8.490;2023-03-31T07:15:19;11.70;83.00
51661;DHT22;37741;49.748;8.490;2023-03-31T07:17:45;11.70;83.20
51661;DHT22;37741;49.748;8.490;2023-03-31T07:20:16;11.70;83.20
51661;DHT22;37741;49.748;8.490;2023-03-31T07:22:43;11.70;83.30
51661;DHT22;37741;49.748;8.490;2023-03-31T07:25:10;11.70;83.40
51661;DHT22;37741;49.748;8.490;2023-03-31T07:27:36;11.70;83.50
51661;DHT22;37741;49.748;8.490;2023-03-31T07:30:07;11.70;83.50
51661;DHT22;37741;49.748;8.490;2023-03-31T07:32:33;11.70;83.60
51661;DHT22;37741;49.748;8.490;2023-03-31T07:34:58;11.60;83.50
51661;DHT22;37741;49.748;8.490;2023-03-31T07:37:24;11.70;83.70
51661;DHT22;37741;49.748;8.490;2023-03-31T07:39:50;11.60;83.70
51661;DHT22;37741;49.748;8.490;2023-03-31T07:42:16;11.60;83.90
51661;DHT22;37741;49.748;8.490;2023-03-31T07:44:42;11.60;84.00
51661;DHT22;37741;49.748;8.490;2023-03-31T07:47:07;11.70;84.20
51661;DHT22;37741;49.748;8.490;2023-03-31T07:49:34;11.70;84.10
51661;DHT22;37741;49.748;8.490;2023-03-31T07:52:00;11.60;83.90
51661;DHT22;37741;49.748;8.490;2023-03-31T07:54:26;11.60;83.80
51661;DHT22;37741;49.748;8.490;2023-03-31T07:56:53;11.60;83.80
51661;DHT22;37741;49.748;8.490;2023-03-31T07:59:19;11.60;83.80
51661;DHT22;37741;49.748;8.490;2023-03-31T08:01:44;11.60;83.80
51661;DHT22;37741;49.748;8.490;2023-03-31T08:04:11;11.60;83.80
51661;DHT22;37741;49.748;8.490;2023-03-31T08:06:37;11.60;84.00
51661;DHT22;37741;49.748;8.490;2023-03-31T08:09:04;11.60;84.40
51661;DHT22;37741;49.748;8.490;2023-03-31T08:11:31;11.60;84.40
51661;DHT22;37741;49.748;8.490;2023-03-31T08:13:57;11.60;84.20
51661;DHT22;37741;49.748;8.490;2023-03-31T08:16:23;11.60;84.20
51661;DHT22;37741;49.748;8.490;2023-03-31T08:18:48;11.60;84.20
51661;DHT22;37741;49.748;8.490;2023-03-31T08:21:14;11.60;84.20
51661;DHT22;37741;49.748;8.490;2023-03-31T08:23:40;11.60;84.80
51661;DHT22;37741;49.748;8.490;2023-03-31T08:26:12;11.60;84.60
51661;DHT22;37741;49.748;8.490;2023-03-31T08:28:38;11.60;84.20
51661;DHT22;37741;49.748;8.490;2023-03-31T08:31:08;11.60;84.20
51661;DHT22;37741;49.748;8.490;2023-03-31T08:33:35;11.60;84.40
51661;DHT22;37741;49.748;8.490;2023-03-31T08:36:04;11.60;84.30
51661;DHT22;37741;49.748;8.490;2023-03-31T08:38:33;11.50;84.30
51661;DHT22;37741;49.748;8.490;2023-03-31T08:41:03;11.50;84.50
51661;DHT22;37741;49.748;8.490;2023-03-31T08:43:33;11.50;84.50
51661;DHT22;37741;49.748;8.490;2023-03-31T08:46:01;11.50;84.70
51661;DHT22;37741;49.748;8.490;2023-03-31T08:48:38;11.40;84.60
51661;DHT22;37741;49.748;8.490;2023-03-31T08:51:39;11.50;84.70
51661;DHT22;37741;49.748;8.490;2023-03-31T08:56:46;11.50;84.60
51661;DHT22;37741;49.748;8.490;2023-03-31T08:59:32;11.40;84.50
51661;DHT22;37741;49.748;8.490;2023-03-31T09:13:09;11.50;84.40
51661;DHT22;37741;49.748;8.490;2023-03-31T09:15:44;11.50;84.60
51661;DHT22;37741;49.748;8.490;2023-03-31T09:20:53;11.50;84.30
51661;DHT22;37741;49.748;8.490;2023-03-31T09:23:41;11.50;84.80
51661;DHT22;37741;49.748;8.490;2023-03-31T09:28:47;11.60;84.90
51661;DHT22;37741;49.748;8.490;2023-03-31T09:31:16;11.60;84.80
51661;DHT22;37741;49.748;8.490;2023-03-31T09:33:47;11.60;84.70
51661;DHT22;37741;49.748;8.490;2023-03-31T09:36:18;11.60;84.70
51661;DHT22;37741;49.748;8.490;2023-03-31T09:38:45;11.60;84.80
51661;DHT22;37741;49.748;8.490;2023-03-31T09:41:13;11.60;85.10
51661;DHT22;37741;49.748;8.490;2023-03-31T09:43:40;11.60;85.40
51661;DHT22;37741;49.748;8.490;2023-03-31T09:46:20;11.60;85.20
51661;DHT22;37741;49.748;8.490;2023-03-31T09:49:05;11.60;85.10
51661;DHT22;37741;49.748;8.490;2023-03-31T09:51:34;11.60;85.20
51661;DHT22;37741;49.748;8.490;2023-03-31T09:54:21;11.60;85.20
51661;DHT22;37741;49.748;8.490;2023-03-31T09:56:50;11.60;85.20
51661;DHT22;37741;49.748;8.490;2023-03-31T09:59:32;11.60;85.10
51661;DHT22;37741;49.748;8.490;2023-03-31T10:02:22;11.60;84.90
51661;DHT22;37741;49.748;8.490;2023-03-31T10:04:49;11.60;84.80
51661;DHT22;37741;49.748;8.490;2023-03-31T10:07:20;11.60;84.90
51661;DHT22;37741;49.748;8.490;2023-03-31T10:09:47;11.60;84.70
51661;DHT22;37741;49.748;8.490;2023-03-31T10:12:19;11.60;84.50
51661;DHT22;37741;49.748;8.490;2023-03-31T10:14:50;11.60;84.50
51661;DHT22;37741;49.748;8.490;2023-03-31T10:17:21;11.70;84.40
51661;DHT22;37741;49.748;8.490;2023-03-31T10:19:59;11.70;84.30
51661;DHT22;37741;49.748;8.490;2023-03-31T10:22:31;11.70;84.40
51661;DHT22;37741;49.748;8.490;2023-03-31T10:27:45;11.70;84.40
51661;DHT22;37741;49.748;8.490;2023-03-31T10:30:20;11.70;84.40
51661;DHT22;37741;49.748;8.490;2023-03-31T10:32:46;11.80;84.50
51661;DHT22;37741;49.748;8.490;2023-03-31T10:35:26;11.80;84.60
51661;DHT22;37741;49.748;8.490;2023-03-31T10:37:57;11.80;84.60
51661;DHT22;37741;49.748;8.490;2023-03-31T10:40:25;11.80;84.50
51661;DHT22;37741;49.748;8.490;2023-03-31T10:43:19;11.90;84.70
51661;DHT22;37741;49.748;8.490;2023-03-31T10:45:51;11.90;84.50
51661;DHT22;37741;49.748;8.490;2023-03-31T10:48:39;11.90;84.30
51661;DHT22;37741;49.748;8.490;2023-03-31T10:51:10;11.90;84.50
51661;DHT22;37741;49.748;8.490;2023-03-31T10:53:48;12.00;84.40
51661;DHT22;37741;49.748;8.490;2023-03-31T11:04:59;12.10;84.50
51661;DHT22;37741;49.748;8.490;2023-03-31T11:12:54;12.10;84.50
51661;DHT22;37741;49.748;8.490;2023-03-31T11:21:22;12.20;84.80
51661;DHT22;37741;49.748;8.490;2023-03-31T11:29:58;12.30;84.40
51661;DHT22;37741;49.748;8.490;2023-03-31T11:35:30;12.30;84.40
51661;DHT22;37741;49.748;8.490;2023-03-31T11:40:59;12.40;83.90
51661;DHT22;37741;49.748;8.490;2023-03-31T11:43:35;12.40;83.70
51661;DHT22;37741;49.748;8.490;2023-03-31T11:46:12;12.40;84.10
51661;DHT22;37741;49.748;8.490;2023-03-31T11:51:19;12.40;84.20
51661;DHT22;37741;49.748;8.490;2023-03-31T11:53:46;12.40;84.30
51661;DHT22;37741;49.748;8.490;2023-03-31T11:56:14;12.50;84.10
51661;DHT22;37741;49.748;8.490;2023-03-31T11:58:46;12.50;83.90
51661;DHT22;37741;49.748;8.490;2023-03-31T12:01:19;12.50;84.00
51661;DHT22;37741;49.748;8.490;2023-03-31T12:04:04;12.50;83.80
51661;DHT22;37741;49.748;8.490;2023-03-31T12:06:39;12.40;83.70
51661;DHT22;37741;49.748;8.490;2023-03-31T12:09:14;12.50;83.70
51661;DHT22;37741;49.748;8.490;2023-03-31T12:17:16;12.50;84.20
51661;DHT22;37741;49.748;8.490;2023-03-31T12:20:05;12.50;84.40
51661;DHT22;37741;49.748;8.490;2023-03-31T12:22:44;12.50;84.40
51661;DHT22;37741;49.748;8.490;2023-03-31T12:25:13;12.50;84.30
51661;DHT22;37741;49.748;8.490;2023-03-31T12:27:40;12.50;84.40
51661;DHT22;37741;49.748;8.490;2023-03-31T12:30:14;12.50;84.40
51661;DHT22;37741;49.748;8.490;2023-03-31T12:32:44;12.50;84.50
51661;DHT22;37741;49.748;8.490;2023-03-31T12:38:12;12.50;84.10
51661;DHT22;37741;49.748;8.490;2023-03-31T12:41:03;12.50;84.20
51661;DHT22;37741;49.748;8.490;2023-03-31T12:43:55;12.50;83.60
51661;DHT22;37741;49.748;8.490;2023-03-31T12:59:35;12.60;82.50
51661;DHT22;37741;49.748;8.490;2023-03-31T13:02:19;12.70;81.90
51661;DHT22;37741;49.748;8.490;2023-03-31T13:04:46;12.70;81.70
51661;DHT22;37741;49.748;8.490;2023-03-31T13:13:10;12.80;80.90
51661;DHT22;37741;49.748;8.490;2023-03-31T13:15:37;12.90;80.70
51661;DHT22;37741;49.748;8.490;2023-03-31T13:18:04;12.90;80.80
51661;DHT22;37741;49.748;8.490;2023-03-31T13:20:33;12.90;80.60
51661;DHT22;37741;49.748;8.490;2023-03-31T13:23:21;12.90;80.30
51661;DHT22;37741;49.748;8.490;2023-03-31T13:25:54;12.90;81.10
51661;DHT22;37741;49.748;8.490;2023-03-31T13:30:58;12.90;81.80
51661;DHT22;37741;49.748;8.490;2023-03-31T13:42:33;12.70;82.40
51661;DHT22;37741;49.748;8.490;2023-03-31T14:05:35;12.70;82.90
51661;DHT22;37741;49.748;8.490;2023-03-31T14:08:10;12.70;82.80
51661;DHT22;37741;49.748;8.490;2023-03-31T14:10:38;12.70;82.80
51661;DHT22;37741;49.748;8.490;2023-03-31T14:18:16;12.60;82.90
51661;DHT22;37741;49.748;8.490;2023-03-31T14:20:47;12.60;83.10
51661;DHT22;37741;49.748;8.490;2023-03-31T14:26:01;12.60;82.90
51661;DHT22;37741;49.748;8.490;2023-03-31T14:28:46;12.60;83.00
51661;DHT22;37741;49.748;8.490;2023-03-31T14:31:42;12.70;83.90
51661;DHT22;37741;49.748;8.490;2023-03-31T14:34:58;12.70;84.20
51661;DHT22;37741;49.748;8.490;2023-03-31T14:37:06;12.70;83.90
51661;DHT22;37741;49.748;8.490;2023-03-31T14:39:54;12.90;84.90
51661;DHT22;37741;49.748;8.490;2023-03-31T14:42:35;12.90;84.40
51661;DHT22;37741;49.748;8.490;2023-03-31T14:45:37;13.00;84.60
51661;DHT22;37741;49.748;8.490;2023-03-31T14:48:09;13.00;84.50
51661;DHT22;37741;49.748;8.490;2023-03-31T14:50:41;13.00;84.20
51661;DHT22;37741;49.748;8.490;2023-03-31T14:53:23;13.00;84.00
51661;DHT22;37741;49.748;8.490;2023-03-31T14:55:49;13.00;83.80
51661;DHT22;37741;49.748;8.490;2023-03-31T14:58:24;13.00;83.30
51661;DHT22;37741;49.748;8.490;2023-03-31T15:00:51;13.00;83.50
51661;DHT22;37741;49.748;8.490;2023-03-31T15:03:17;13.00;83.00
51661;DHT22;37741;49.748;8.490;2023-03-31T15:05:43;12.90;82.90
51661;DHT22;37741;49.748;8.490;2023-03-31T15:08:14;12.90;82.80
51661;DHT22;37741;49.748;8.490;2023-03-31T15:10:57;12.80;82.10
51661;DHT22;37741;49.748;8.490;2023-03-31T15:15:57;12.80;82.00
51661;DHT22;37741;49.748;8.490;2023-03-31T15:18:25;12.80;82.00
51661;DHT22;37741;49.748;8.490;2023-03-31T15:20:51;12.70;81.80
51661;DHT22;37741;49.748;8.490;2023-03-31T15:23:34;12.70;81.80
51661;DHT22;37741;49.748;8.490;2023-03-31T15:26:06;12.70;81.70
51661;DHT22;37741;49.748;8.490;2023-03-31T15:28:40;12.70;81.80
51661;DHT22;37741;49.748;8.490;2023-03-31T15:31:09;12.70;82.20
51661;DHT22;37741;49.748;8.490;2023-03-31T15:33:35;12.70;82.90
51661;DHT22;37741;49.748;8.490;2023-03-31T15:36:15;12.70;82.70
51661;DHT22;37741;49.748;8.490;2023-03-31T15:38:41;12.70;82.80
51661;DHT22;37741;49.748;8.490;2023-03-31T15:41:14;12.70;82.80
51661;DHT22;37741;49.748;8.490;2023-03-31T15:46:27;12.80;82.50
51661;DHT22;37741;49.748;8.490;2023-03-31T15:49:05;12.80;82.30
51661;DHT22;37741;49.748;8.490;2023-03-31T15:51:46;12.80;82.20
51661;DHT22;37741;49.748;8.490;2023-03-31T15:54:40;12.70;82.20
51661;DHT22;37741;49.748;8.490;2023-03-31T15:57:08;12.70;82.10
51661;DHT22;37741;49.748;8.490;2023-03-31T15:59:46;12.70;82.20
51661;DHT22;37741;49.748;8.490;2023-03-31T16:02:17;12.70;82.10
51661;DHT22;37741;49.748;8.490;2023-03-31T16:04:49;12.70;82.10
51661;DHT22;37741;49.748;8.490;2023-03-31T16:07:21;12.70;82.20
51661;DHT22;37741;49.748;8.490;2023-03-31T16:15:11;12.70;82.40
51661;DHT22;37741;49.748;8.490;2023-03-31T16:17:48;12.70;82.60
51661;DHT22;37741;49.748;8.490;2023-03-31T16:20:21;12.70;82.70
51661;DHT22;37741;49.748;8.490;2023-03-31T16:22:53;12.70;82.60
51661;DHT22;37741;49.748;8.490;2023-03-31T16:25:22;12.70;82.80
51661;DHT22;37741;49.748;8.490;2023-03-31T16:27:54;12.60;82.70
51661;DHT22;37741;49.748;8.490;2023-03-31T16:30:33;12.60;82.90
51661;DHT22;37741;49.748;8.490;2023-03-31T16:33:13;12.60;82.90
51661;DHT22;37741;49.748;8.490;2023-03-31T16:35:47;12.60;82.80
51661;DHT22;37741;49.748;8.490;2023-03-31T16:38:19;12.60;82.90
51661;DHT22;37741;49.748;8.490;2023-03-31T16:40:46;12.60;82.90
51661;DHT22;37741;49.748;8.490;2023-03-31T16:45:54;12.60;82.90
51661;DHT22;37741;49.748;8.490;2023-03-31T16:48:21;12.60;83.00
51661;DHT22;37741;49.748;8.490;2023-03-31T16:50:49;12.60;83.10
51661;DHT22;37741;49.748;8.490;2023-03-31T16:53:20;12.60;83.10
51661;DHT22;37741;49.748;8.490;2023-03-31T16:55:47;12.50;83.10
51661;DHT22;37741;49.748;8.490;2023-03-31T16:58:13;12.50;83.10
51661;DHT22;37741;49.748;8.490;2023-03-31T17:00:39;12.50;83.20
51661;DHT22;37741;49.748;8.490;2023-03-31T17:03:09;12.50;83.20
51661;DHT22;37741;49.748;8.490;2023-03-31T17:05:44;12.50;83.30
51661;DHT22;37741;49.748;8.490;2023-03-31T17:08:12;12.50;83.20
51661;DHT22;37741;49.748;8.490;2023-03-31T17:10:38;12.50;83.30
51661;DHT22;37741;49.748;8.490;2023-03-31T17:13:05;12.50;83.20
51661;DHT22;37741;49.748;8.490;2023-03-31T17:15:31;12.50;83.10
51661;DHT22;37741;49.748;8.490;2023-03-31T17:17:57;12.50;83.20
51661;DHT22;37741;49.748;8.490;2023-03-31T17:20:24;12.40;83.10
51661;DHT22;37741;49.748;8.490;2023-03-31T17:22:50;12.50;83.10
51661;DHT22;37741;49.748;8.490;2023-03-31T17:25:16;12.40;83.10
51661;DHT22;37741;49.748;8.490;2023-03-31T17:27:43;12.40;83.00
51661;DHT22;37741;49.748;8.490;2023-03-31T17:30:13;12.40;82.90
51661;DHT22;37741;49.748;8.490;2023-03-31T17:32:39;12.40;82.70
51661;DHT22;37741;49.748;8.490;2023-03-31T17:35:05;12.40;82.90
51661;DHT22;37741;49.748;8.490;2023-03-31T17:37:32;12.40;82.90
51661;DHT22;37741;49.748;8.490;2023-03-31T17:39:58;12.40;82.70
51661;DHT22;37741;49.748;8.490;2023-03-31T17:42:23;12.40;82.50
51661;DHT22;37741;49.748;8.490;2023-03-31T17:44:49;12.40;82.70
51661;DHT22;37741;49.748;8.490;2023-03-31T17:47:17;12.40;82.60
51661;DHT22;37741;49.748;8.490;2023-03-31T17:49:43;12.40;83.40
51661;DHT22;37741;49.748;8.490;2023-03-31T17:52:09;12.40;83.20
51661;DHT22;37741;49.748;8.490;2023-03-31T17:54:35;12.40;82.40
51661;DHT22;37741;49.748;8.490;2023-03-31T17:57:01;12.30;82.10
51661;DHT22;37741;49.748;8.490;2023-03-31T17:59:27;12.30;81.70
51661;DHT22;37741;49.748;8.490;2023-03-31T18:01:53;12.30;81.50
51661;DHT22;37741;49.748;8.490;2023-03-31T18:04:21;12.30;81.20
51661;DHT22;37741;49.748;8.490;2023-03-31T18:06:48;12.30;81.20
51661;DHT22;37741;49.748;8.490;2023-03-31T18:09:14;12.30;81.10
51661;DHT22;37741;49.748;8.490;2023-03-31T18:11:41;12.30;80.70
51661;DHT22;37741;49.748;8.490;2023-03-31T18:14:07;12.30;81.00
51661;DHT22;37741;49.748;8.490;2023-03-31T18:16:34;12.30;81.40
51661;DHT22;37741;49.748;8.490;2023-03-31T18:19:00;12.20;81.40
51661;DHT22;37741;49.748;8.490;2023-03-31T18:21:26;12.20;81.00
51661;DHT22;37741;49.748;8.490;2023-03-31T18:23:52;12.20;81.10
51661;DHT22;37741;49.748;8.490;2023-03-31T18:26:21;12.20;81.10
51661;DHT22;37741;49.748;8.490;2023-03-31T18:28:48;12.30;81.20
51661;DHT22;37741;49.748;8.490;2023-03-31T18:31:14;12.20;81.20
51661;DHT22;37741;49.748;8.490;2023-03-31T18:33:40;12.20;80.40
51661;DHT22;37741;49.748;8.490;2023-03-31T18:36:06;12.20;81.10
51661;DHT22;37741;49.748;8.490;2023-03-31T18:38:33;12.10;80.60
51661;DHT22;37741;49.748;8.490;2023-03-31T18:40:59;12.20;80.70
51661;DHT22;37741;49.748;8.490;2023-03-31T18:43:25;12.20;80.90
51661;DHT22;37741;49.748;8.490;2023-03-31T18:45:54;12.10;81.00
51661;DHT22;37741;49.748;8.490;2023-03-31T18:48:25;12.10;81.00
51661;DHT22;37741;49.748;8.490;2023-03-31T18:50:52;12.10;81.00
51661;DHT22;37741;49.748;8.490;2023-03-31T18:53:19;12.10;81.00
51661;DHT22;37741;49.748;8.490;2023-03-31T18:55:53;12.10;80.90